Linda Moran — WDE4187 — position and weather

sailwx.info

Track history (hours):
 
Tides and Currents Weather Stations Pressure Air Temp Water Temp Dewpoint Dewpoint Depression Visibility Wind Speed Wind Dir Waves Ship Positions

Linda Moran

Owner: MORAN TOWING CORP., NEW CANAAN, CT. More information available from US FCC via Universal Licensing System and Coast Guard Vessel Documentation Center.

Last reported at 2016-Apr-29 14:29 UTC. Time now 2016-May-06 14:56 UTC.
Position N 29°06' W 093°12'.

Length 156 m; draft 5.2 m.

Type: Ship (hazmat cat D). MMSI: 367349860.

Date/timePositionNaut miles runAvg speedWind from/ knotsBaromVisibWave heightAir tempDewpointWater temp
2016-Apr-29 14:29N 29°06' W 093°12'37 9.4
2016-Apr-29 10:32N 28°29' W 093°06'  
2016-Apr-24 19:20N 29°46' W 090°02'810.2
2016-Apr-24 18:33N 29°52' W 089°56'6 6.2
2016-Apr-24 17:33N 29°57' W 090°01'0 0.0
2016-Apr-24 16:33N 29°57' W 090°01'0 0.0
2016-Apr-24 15:30N 29°57' W 090°01'0 0.0
2016-Apr-24 14:33N 29°57' W 090°01'0 0.0
2016-Apr-24 13:33N 29°57' W 090°01'0 0.0
2016-Apr-24 12:33N 29°57' W 090°01'0 0.0
2016-Apr-24 11:33N 29°57' W 090°01'0 0.0
2016-Apr-24 10:33N 29°57' W 090°01'0 0.0
2016-Apr-24 09:33N 29°57' W 090°01'0 0.0
2016-Apr-24 08:33N 29°57' W 090°01'0 0.0
2016-Apr-24 07:33N 29°57' W 090°01'0 0.0
2016-Apr-24 06:33N 29°57' W 090°01'0 0.0
2016-Apr-24 05:33N 29°57' W 090°01'0 0.0
2016-Apr-24 04:33N 29°57' W 090°01'0 0.0
2016-Apr-24 03:33N 29°57' W 090°01'0 0.0
2016-Apr-24 02:33N 29°57' W 090°01'0 0.0
2016-Apr-24 01:33N 29°57' W 090°01'0 0.0
2016-Apr-24 00:33N 29°57' W 090°01'0 0.0
2016-Apr-23 23:33N 29°57' W 090°01'0 0.0
2016-Apr-23 22:33N 29°57' W 090°01'0 0.0
2016-Apr-23 21:33N 29°57' W 090°01'0 0.0
2016-Apr-23 20:33N 29°57' W 090°01'0 0.0
2016-Apr-23 19:33N 29°57' W 090°01'0 0.0
2016-Apr-23 18:33N 29°57' W 090°01'0 0.0
2016-Apr-23 17:33N 29°57' W 090°01'0 0.0
2016-Apr-23 16:33N 29°57' W 090°01'0 0.0
2016-Apr-23 15:33N 29°57' W 090°01'0 0.0
2016-Apr-23 14:33N 29°57' W 090°01'0 0.0
2016-Apr-23 13:33N 29°57' W 090°01'0 0.0
2016-Apr-23 12:33N 29°57' W 090°01'0 0.0
2016-Apr-23 11:33N 29°57' W 090°01'0 0.0
2016-Apr-23 10:33N 29°57' W 090°01'0 0.0
2016-Apr-23 09:33N 29°57' W 090°01'0 0.0
2016-Apr-23 08:33N 29°57' W 090°01'0 0.0
2016-Apr-23 07:33N 29°57' W 090°01'0 0.0
2016-Apr-23 06:33N 29°57' W 090°01'0 0.0
2016-Apr-23 05:33N 29°57' W 090°01'0 0.0
2016-Apr-23 04:30N 29°57' W 090°01'0 0.0
2016-Apr-23 03:33N 29°57' W 090°01'0 0.0
2016-Apr-23 02:30N 29°57' W 090°01'0 0.0
2016-Apr-23 01:33N 29°57' W 090°01'0 0.0
2016-Apr-23 00:33N 29°57' W 090°01'0 0.0
2016-Apr-22 23:33N 29°57' W 090°01'0 0.0
2016-Apr-22 22:33N 29°57' W 090°01'0 0.0
2016-Apr-22 21:33N 29°57' W 090°01'0 0.0
2016-Apr-22 20:33N 29°57' W 090°01'4 4.1
2016-Apr-22 19:33N 29°55' W 089°57'3 2.6
2016-Apr-22 18:27N 29°52' W 089°56'0 0.0
2016-Apr-22 13:08N 29°52' W 089°56'0 0.0
2016-Apr-22 04:26N 29°52' W 089°56'0 0.0
2016-Apr-22 03:26N 29°52' W 089°57'0 0.0
2016-Apr-22 02:32N 29°52' W 089°57'0 0.0
2016-Apr-21 23:20N 29°52' W 089°57'0 0.0
2016-Apr-21 22:26N 29°52' W 089°57'0 0.0
2016-Apr-21 21:26N 29°52' W 089°57'0 0.0
2016-Apr-21 10:23N 29°52' W 089°56'0 0.0
2016-Apr-21 09:05N 29°52' W 089°56'0 0.0
2016-Apr-20 20:20N 29°52' W 089°56'0 0.2
2016-Apr-20 19:27N 29°53' W 089°57'5 5.2
2016-Apr-20 18:32N 29°49' W 090°00'  
Track history (hours):
 
Tides and Currents Weather Stations Pressure Air Temp Water Temp Dewpoint Dewpoint Depression Visibility Wind Speed Wind Dir Waves Ship Positions

Linda Moran

Owner: MORAN TOWING CORP., NEW CANAAN, CT. More information available from US FCC via Universal Licensing System and Coast Guard Vessel Documentation Center.

Last reported at 2016-Apr-29 14:29 UTC. Time now 2016-May-06 14:56 UTC.
Position N 29°06' W 093°12'.

Length 156 m; draft 5.2 m.

Type: Ship (hazmat cat D). MMSI: 367349860.

Date/timePositionNaut miles runAvg speedWind from/ knotsBaromVisibWave heightAir tempDewpointWater temp
2016-Apr-29 14:29N 29°06' W 093°12'37 9.4
2016-Apr-29 10:32N 28°29' W 093°06'  
2016-Apr-24 19:20N 29°46' W 090°02'810.2
2016-Apr-24 18:33N 29°52' W 089°56'6 6.2
2016-Apr-24 17:33N 29°57' W 090°01'0 0.0
2016-Apr-24 16:33N 29°57' W 090°01'0 0.0
2016-Apr-24 15:30N 29°57' W 090°01'0 0.0
2016-Apr-24 14:33N 29°57' W 090°01'0 0.0
2016-Apr-24 13:33N 29°57' W 090°01'0 0.0
2016-Apr-24 12:33N 29°57' W 090°01'0 0.0
2016-Apr-24 11:33N 29°57' W 090°01'0 0.0
2016-Apr-24 10:33N 29°57' W 090°01'0 0.0
2016-Apr-24 09:33N 29°57' W 090°01'0 0.0
2016-Apr-24 08:33N 29°57' W 090°01'0 0.0
2016-Apr-24 07:33N 29°57' W 090°01'0 0.0
2016-Apr-24 06:33N 29°57' W 090°01'0 0.0
2016-Apr-24 05:33N 29°57' W 090°01'0 0.0
2016-Apr-24 04:33N 29°57' W 090°01'0 0.0
2016-Apr-24 03:33N 29°57' W 090°01'0 0.0
2016-Apr-24 02:33N 29°57' W 090°01'0 0.0
2016-Apr-24 01:33N 29°57' W 090°01'0 0.0
2016-Apr-24 00:33N 29°57' W 090°01'0 0.0
2016-Apr-23 23:33N 29°57' W 090°01'0 0.0
2016-Apr-23 22:33N 29°57' W 090°01'0 0.0
2016-Apr-23 21:33N 29°57' W 090°01'0 0.0
2016-Apr-23 20:33N 29°57' W 090°01'0 0.0
2016-Apr-23 19:33N 29°57' W 090°01'0 0.0
2016-Apr-23 18:33N 29°57' W 090°01'0 0.0
2016-Apr-23 17:33N 29°57' W 090°01'0 0.0
2016-Apr-23 16:33N 29°57' W 090°01'0 0.0
2016-Apr-23 15:33N 29°57' W 090°01'0 0.0
2016-Apr-23 14:33N 29°57' W 090°01'0 0.0
2016-Apr-23 13:33N 29°57' W 090°01'0 0.0
2016-Apr-23 12:33N 29°57' W 090°01'0 0.0
2016-Apr-23 11:33N 29°57' W 090°01'0 0.0
2016-Apr-23 10:33N 29°57' W 090°01'0 0.0
2016-Apr-23 09:33N 29°57' W 090°01'0 0.0
2016-Apr-23 08:33N 29°57' W 090°01'0 0.0
2016-Apr-23 07:33N 29°57' W 090°01'0 0.0
2016-Apr-23 06:33N 29°57' W 090°01'0 0.0
2016-Apr-23 05:33N 29°57' W 090°01'0 0.0
2016-Apr-23 04:30N 29°57' W 090°01'0 0.0
2016-Apr-23 03:33N 29°57' W 090°01'0 0.0
2016-Apr-23 02:30N 29°57' W 090°01'0 0.0
2016-Apr-23 01:33N 29°57' W 090°01'0 0.0
2016-Apr-23 00:33N 29°57' W 090°01'0 0.0
2016-Apr-22 23:33N 29°57' W 090°01'0 0.0
2016-Apr-22 22:33N 29°57' W 090°01'0 0.0
2016-Apr-22 21:33N 29°57' W 090°01'0 0.0
2016-Apr-22 20:33N 29°57' W 090°01'4 4.1
2016-Apr-22 19:33N 29°55' W 089°57'3 2.6
2016-Apr-22 18:27N 29°52' W 089°56'0 0.0
2016-Apr-22 13:08N 29°52' W 089°56'0 0.0
2016-Apr-22 04:26N 29°52' W 089°56'0 0.0
2016-Apr-22 03:26N 29°52' W 089°57'0 0.0
2016-Apr-22 02:32N 29°52' W 089°57'0 0.0
2016-Apr-21 23:20N 29°52' W 089°57'0 0.0
2016-Apr-21 22:26N 29°52' W 089°57'0 0.0
2016-Apr-21 21:26N 29°52' W 089°57'0 0.0
2016-Apr-21 10:23N 29°52' W 089°56'0 0.0
2016-Apr-21 09:05N 29°52' W 089°56'0 0.0
2016-Apr-20 20:20N 29°52' W 089°56'0 0.2
2016-Apr-20 19:27N 29°53' W 089°57'5 5.2
2016-Apr-20 18:32N 29°49' W 090°00'  

Dump ship's entire track history